createdAt,value
2023-02-11T00:00:58.399Z,1.00
2023-02-11T00:03:25.822Z,1.00
2023-02-11T00:06:03.882Z,0.80
2023-02-11T00:08:30.683Z,1.13
2023-02-11T00:10:58.345Z,1.00
2023-02-11T00:13:26.132Z,0.93
2023-02-11T00:15:53.395Z,0.82
2023-02-11T00:18:20.240Z,0.82
2023-02-11T00:20:46.969Z,1.30
2023-02-11T00:23:13.872Z,1.05
2023-02-11T00:25:45.482Z,1.10
2023-02-11T00:28:12.825Z,1.10
2023-02-11T00:30:39.919Z,1.00
2023-02-11T00:33:06.841Z,0.95
2023-02-11T00:35:33.563Z,0.90
2023-02-11T00:38:00.417Z,1.25
2023-02-11T00:40:27.148Z,0.82
2023-02-11T00:42:53.884Z,1.13
2023-02-11T00:45:21.414Z,1.25
2023-02-11T00:47:48.433Z,0.90
2023-02-11T00:50:15.172Z,1.27
2023-02-11T00:52:42.121Z,0.90
2023-02-11T00:55:09.288Z,0.90
2023-02-11T00:57:36.060Z,1.65
2023-02-11T01:00:04.692Z,0.82
2023-02-11T01:02:31.397Z,0.80
2023-02-11T01:04:59.935Z,1.05
2023-02-11T01:07:28.290Z,1.35
2023-02-11T01:09:55.189Z,0.80
2023-02-11T01:12:22.266Z,0.82
2023-02-11T01:14:49.398Z,1.13
2023-02-11T01:17:16.404Z,0.90
2023-02-11T01:19:43.475Z,0.80
2023-02-11T01:22:10.293Z,1.00
2023-02-11T01:24:37.027Z,1.13
2023-02-11T01:27:03.917Z,1.30
2023-02-11T01:29:30.671Z,0.70
2023-02-11T01:31:57.506Z,0.85
2023-02-11T01:34:24.368Z,1.13
2023-02-11T01:36:51.023Z,0.85
2023-02-11T01:39:17.813Z,1.10
2023-02-11T01:41:44.558Z,1.33
2023-02-11T01:44:32.114Z,0.82
2023-02-11T01:46:59.290Z,1.05
2023-02-11T01:49:32.817Z,0.70
2023-02-11T01:52:08.098Z,0.73
2023-02-11T01:54:59.055Z,0.70
2023-02-11T01:57:29.215Z,0.70
2023-02-11T02:00:01.999Z,0.80
2023-02-11T02:02:49.324Z,0.90
2023-02-11T02:05:43.893Z,0.75
2023-02-11T02:08:46.973Z,0.70
2023-02-11T02:11:13.768Z,0.90
2023-02-11T02:13:40.441Z,0.85
2023-02-11T02:16:13.044Z,0.70
2023-02-11T02:19:17.261Z,0.88
2023-02-11T02:22:06.023Z,1.38
2023-02-11T02:24:41.691Z,0.80
2023-02-11T02:27:20.597Z,1.13
2023-02-11T02:30:16.193Z,0.80
2023-02-11T02:32:45.661Z,0.85
2023-02-11T02:35:19.082Z,0.70
2023-02-11T02:38:03.448Z,0.82
2023-02-11T02:40:35.012Z,0.98
2023-02-11T02:43:03.298Z,1.00
2023-02-11T02:45:30.142Z,1.13
2023-02-11T02:47:56.999Z,1.00
2023-02-11T02:50:30.385Z,1.02
2023-02-11T02:53:25.752Z,0.85
2023-02-11T02:56:16.177Z,1.10
2023-02-11T02:59:02.579Z,1.02
2023-02-11T03:01:29.693Z,0.80
2023-02-11T03:04:15.103Z,1.98
2023-02-11T03:06:48.551Z,1.20
2023-02-11T03:09:18.482Z,1.23
2023-02-11T03:11:45.668Z,1.50
2023-02-11T03:14:17.126Z,1.58
2023-02-11T03:16:45.875Z,2.25
2023-02-11T03:19:27.473Z,1.00
2023-02-11T03:21:56.913Z,1.33
2023-02-11T03:24:33.363Z,2.03
2023-02-11T03:27:26.844Z,1.23
2023-02-11T03:30:19.763Z,1.58
2023-02-11T03:33:00.522Z,1.10
2023-02-11T03:35:39.730Z,1.52
2023-02-11T03:38:15.291Z,1.20
2023-02-11T03:40:45.647Z,1.67
2023-02-11T03:43:19.463Z,0.80
2023-02-11T03:45:48.505Z,1.20
2023-02-11T03:48:17.207Z,1.10
2023-02-11T03:50:47.630Z,1.10
2023-02-11T03:53:15.900Z,0.93
2023-02-11T03:55:46.822Z,1.15
2023-02-11T03:58:13.544Z,1.70
2023-02-11T04:00:42.225Z,2.55
2023-02-11T04:03:09.976Z,1.00
2023-02-11T04:05:37.284Z,0.80
2023-02-11T04:08:05.227Z,1.33
2023-02-11T04:10:31.987Z,2.15
2023-02-11T04:12:58.680Z,1.35
2023-02-11T04:15:25.493Z,1.38
2023-02-11T04:17:52.195Z,1.15
2023-02-11T04:20:18.943Z,1.38
2023-02-11T04:22:45.599Z,0.80
2023-02-11T04:25:12.547Z,0.90
2023-02-11T04:27:39.305Z,1.67
2023-02-11T04:30:07.233Z,1.38
2023-02-11T04:32:33.907Z,2.33
2023-02-11T04:35:00.804Z,0.90
2023-02-11T04:37:27.561Z,1.33
2023-02-11T04:39:54.270Z,0.80
2023-02-11T04:42:21.110Z,0.90
2023-02-11T04:44:47.791Z,1.00
2023-02-11T04:47:15.506Z,1.90
2023-02-11T04:49:42.776Z,0.98
2023-02-11T04:52:09.829Z,1.33
2023-02-11T04:54:36.697Z,1.83
2023-02-11T04:57:03.535Z,1.65
2023-02-11T04:59:30.420Z,1.02
2023-02-11T05:01:57.181Z,1.15
2023-02-11T05:04:24.035Z,0.80
2023-02-11T05:06:50.866Z,1.98
2023-02-11T05:09:17.888Z,1.00
2023-02-11T05:11:44.629Z,1.50
2023-02-11T05:14:11.327Z,1.27
2023-02-11T05:16:38.217Z,1.42
2023-02-11T05:19:05.061Z,1.00
2023-02-11T05:21:31.868Z,0.80
2023-02-11T05:23:58.662Z,1.73
2023-02-11T05:26:25.696Z,1.00
2023-02-11T05:28:52.436Z,0.70
2023-02-11T05:31:19.213Z,1.10
2023-02-11T05:33:46.075Z,1.27
2023-02-11T05:36:13.578Z,1.00
2023-02-11T05:38:42.666Z,1.00
2023-02-11T05:41:10.895Z,0.80
2023-02-11T05:43:37.716Z,1.05
2023-02-11T05:46:05.427Z,1.02
2023-02-11T05:48:32.801Z,1.00
2023-02-11T05:50:59.707Z,2.10
2023-02-11T05:53:26.407Z,0.80
2023-02-11T05:55:53.530Z,0.80
2023-02-11T05:58:20.228Z,0.82
2023-02-11T06:00:46.998Z,0.80
2023-02-11T06:03:13.755Z,1.00
2023-02-11T06:05:40.559Z,3.30
2023-02-11T06:08:07.212Z,1.50
2023-02-11T06:10:33.903Z,1.15
2023-02-11T06:13:01.964Z,1.38
2023-02-11T06:15:29.057Z,1.45
2023-02-11T06:17:56.089Z,1.02
2023-02-11T06:20:22.764Z,1.88
2023-02-11T06:22:49.464Z,1.40
2023-02-11T06:25:16.257Z,1.17
2023-02-11T06:27:42.949Z,3.15
2023-02-11T06:30:10.401Z,1.40
2023-02-11T06:32:44.434Z,1.20
2023-02-11T06:35:12.813Z,2.20
2023-02-11T06:37:41.190Z,1.30
2023-02-11T06:40:08.678Z,1.00
2023-02-11T06:42:36.364Z,1.13
2023-02-11T06:45:06.142Z,1.85
2023-02-11T06:47:33.166Z,1.20
2023-02-11T06:49:59.957Z,0.90
2023-02-11T06:52:26.636Z,1.50
2023-02-11T06:54:53.365Z,0.90
2023-02-11T06:57:20.038Z,1.73
2023-02-11T06:59:47.465Z,1.00
2023-02-11T07:02:14.215Z,1.00
2023-02-11T07:04:41.149Z,1.17
2023-02-11T07:07:07.896Z,2.95
2023-02-11T07:09:34.555Z,2.03
2023-02-11T07:12:01.238Z,1.30
2023-02-11T07:14:27.893Z,1.55
2023-02-11T07:16:54.625Z,2.40
2023-02-11T07:19:21.423Z,2.35
2023-02-11T07:21:48.839Z,1.75
2023-02-11T07:24:15.809Z,1.25
2023-02-11T07:26:42.616Z,1.58
2023-02-11T07:29:09.347Z,3.17
2023-02-11T07:31:36.146Z,1.60
2023-02-11T07:34:03.362Z,3.13
2023-02-11T07:36:32.216Z,1.42
2023-02-11T07:39:00.283Z,2.33
2023-02-11T07:41:27.427Z,3.15
2023-02-11T07:43:54.515Z,2.42
2023-02-11T07:46:25.857Z,1.35
2023-02-11T07:48:52.647Z,2.90
2023-02-11T07:51:23.608Z,1.73
2023-02-11T07:53:52.016Z,1.85
2023-02-11T07:56:20.534Z,1.80
2023-02-11T07:58:47.912Z,2.55
2023-02-11T08:01:26.203Z,1.60
2023-02-11T08:03:53.373Z,1.45
2023-02-11T08:06:23.123Z,1.83
2023-02-11T08:08:50.245Z,2.25
2023-02-11T08:11:26.436Z,2.22
2023-02-11T08:13:54.460Z,1.15
2023-02-11T08:16:24.639Z,2.85
2023-02-11T08:18:52.984Z,2.35
2023-02-11T08:21:20.695Z,3.10
2023-02-11T08:23:47.733Z,2.55
2023-02-11T08:26:18.435Z,2.47
2023-02-11T08:28:47.085Z,2.83
2023-02-11T08:31:20.796Z,3.00
2023-02-11T08:33:47.882Z,2.28
2023-02-11T08:36:16.054Z,2.15
2023-02-11T08:38:43.926Z,1.55
2023-02-11T08:41:11.106Z,3.80
2023-02-11T08:43:41.834Z,4.43
2023-02-11T08:46:10.123Z,1.95
2023-02-11T08:48:36.866Z,1.95
2023-02-11T08:51:13.895Z,1.55
2023-02-11T08:53:40.777Z,2.17
2023-02-11T08:56:11.623Z,2.85
2023-02-11T08:58:40.037Z,5.32
2023-02-11T09:01:15.686Z,4.93
2023-02-11T09:03:42.609Z,1.58
2023-02-11T09:06:11.020Z,2.63
2023-02-11T09:08:40.026Z,1.77
2023-02-11T09:11:07.425Z,2.30
2023-02-11T09:13:34.653Z,3.30
2023-02-11T09:16:04.602Z,3.55
2023-02-11T09:18:32.010Z,1.33
2023-02-11T09:21:03.564Z,2.13
2023-02-11T09:23:31.179Z,3.08
2023-02-11T09:25:57.857Z,2.38
2023-02-11T09:28:24.587Z,1.83
2023-02-11T09:30:51.715Z,1.58
2023-02-11T09:33:18.615Z,2.20
2023-02-11T09:35:45.315Z,3.25
2023-02-11T09:38:15.111Z,2.40
2023-02-11T09:40:45.948Z,2.38
2023-02-11T09:43:22.194Z,1.95
2023-02-11T09:45:49.919Z,2.38
2023-02-11T09:48:23.212Z,1.92
2023-02-11T09:53:27.680Z,1.70
2023-02-11T09:55:57.652Z,2.05
2023-02-11T09:58:28.666Z,2.15
2023-02-11T10:01:21.967Z,1.35
2023-02-11T10:03:51.569Z,1.50
2023-02-11T10:06:21.370Z,1.63
2023-02-11T10:09:05.757Z,2.08
2023-02-11T10:12:02.174Z,1.05
2023-02-11T10:15:06.268Z,2.00
2023-02-11T10:18:07.730Z,2.30
2023-02-11T10:21:08.900Z,0.88
2023-02-11T10:23:40.958Z,2.28
2023-02-11T10:26:16.957Z,0.80
2023-02-11T10:28:47.071Z,1.55
2023-02-11T10:31:20.713Z,2.67
2023-02-11T10:33:54.444Z,1.55
2023-02-11T10:36:24.591Z,2.35
2023-02-11T10:38:54.375Z,2.03
2023-02-11T10:41:26.971Z,2.72
2023-02-11T10:43:54.289Z,16.38
2023-02-11T10:46:35.723Z,19.98
2023-02-11T10:51:44.332Z,13.30
2023-02-11T10:54:21.317Z,9.57
2023-02-11T10:56:58.699Z,6.60
2023-02-11T10:59:32.954Z,4.25
2023-02-11T11:02:16.922Z,3.95
2023-02-11T11:04:45.060Z,3.65
2023-02-11T11:07:14.725Z,2.17
2023-02-11T11:09:55.582Z,7.78
2023-02-11T11:12:25.292Z,5.03
2023-02-11T11:15:22.656Z,6.13
2023-02-11T11:17:51.318Z,2.63
2023-02-11T11:20:28.226Z,4.22
2023-02-11T11:23:16.219Z,2.60
2023-02-11T11:26:18.608Z,1.63
2023-02-11T11:28:51.359Z,1.23
2023-02-11T11:31:34.926Z,1.35
2023-02-11T11:34:18.264Z,1.17
2023-02-11T11:36:45.848Z,2.55
2023-02-11T11:39:20.554Z,3.58
2023-02-11T11:42:01.319Z,4.18
2023-02-11T11:44:29.839Z,1.42
2023-02-11T11:47:12.131Z,1.10
2023-02-11T11:50:12.223Z,1.40
2023-02-11T11:52:54.943Z,2.78
2023-02-11T11:55:34.974Z,2.60
2023-02-11T11:58:02.473Z,3.92
2023-02-11T12:00:48.506Z,1.98
2023-02-11T12:03:27.435Z,2.47
2023-02-11T12:06:18.639Z,0.93
2023-02-11T12:09:05.022Z,1.15
2023-02-11T12:11:40.184Z,1.10
2023-02-11T12:14:09.893Z,0.93
2023-02-11T12:16:53.301Z,0.80
2023-02-11T12:22:12.527Z,1.45
2023-02-11T12:24:56.402Z,1.57
2023-02-11T12:27:41.714Z,1.02
2023-02-11T12:30:18.084Z,2.30
2023-02-11T12:33:08.641Z,1.08
2023-02-11T12:35:47.946Z,2.25
2023-02-11T12:38:37.678Z,3.28
2023-02-11T12:41:45.276Z,1.48
2023-02-11T12:44:26.296Z,3.58
2023-02-11T12:47:14.665Z,2.22
2023-02-11T12:49:59.350Z,1.88
2023-02-11T12:52:32.933Z,2.47
2023-02-11T12:55:18.322Z,3.90
2023-02-11T12:57:48.817Z,3.08
2023-02-11T13:00:49.875Z,1.80
2023-02-11T13:03:28.783Z,1.13
2023-02-11T13:05:59.938Z,3.63
2023-02-11T13:08:33.917Z,1.50
2023-02-11T13:11:18.925Z,4.10
2023-02-11T13:13:45.538Z,3.63
2023-02-11T13:16:40.562Z,2.30
2023-02-11T13:19:14.686Z,2.45
2023-02-11T13:21:50.333Z,4.03
2023-02-11T13:24:44.418Z,5.68
2023-02-11T13:27:42.849Z,1.25
2023-02-11T13:30:34.528Z,2.72
2023-02-11T13:33:01.552Z,2.47
2023-02-11T13:35:31.173Z,2.05
2023-02-11T13:38:00.335Z,0.70
2023-02-11T13:40:38.527Z,1.20
2023-02-11T13:43:18.828Z,0.70
2023-02-11T13:45:50.704Z,1.02
2023-02-11T13:48:25.071Z,0.85
2023-02-11T13:50:58.481Z,1.23
2023-02-11T13:53:25.803Z,1.45
2023-02-11T13:56:09.440Z,1.60
2023-02-11T13:58:46.488Z,2.33
2023-02-11T14:02:20.148Z,2.95
2023-02-11T14:05:23.407Z,0.80
2023-02-11T14:09:00.594Z,1.52
2023-02-11T14:11:33.514Z,1.20
2023-02-11T14:14:27.725Z,1.33
2023-02-11T14:17:00.457Z,1.30
2023-02-11T14:19:35.414Z,3.70
2023-02-11T14:22:19.137Z,1.85
2023-02-11T14:24:48.263Z,0.70
2023-02-11T14:27:52.380Z,0.93
2023-02-11T14:30:39.417Z,1.15
2023-02-11T14:33:29.581Z,4.20
2023-02-11T14:36:30.401Z,1.52
2023-02-11T14:39:14.829Z,1.08
2023-02-11T14:41:46.072Z,1.27
2023-02-11T14:44:20.507Z,1.13
2023-02-11T14:46:50.290Z,2.30
2023-02-11T14:49:33.740Z,4.78
2023-02-11T14:54:43.459Z,1.33
2023-02-11T14:57:20.042Z,1.73
2023-02-11T14:59:59.306Z,1.40
2023-02-11T15:02:34.751Z,2.10
2023-02-11T15:05:19.622Z,1.55
2023-02-11T15:07:59.250Z,2.58
2023-02-11T15:10:42.766Z,3.47
2023-02-11T15:15:41.891Z,1.50
2023-02-11T15:18:10.573Z,2.13
2023-02-11T15:20:37.473Z,2.50
2023-02-11T15:23:12.037Z,1.10
2023-02-11T15:25:52.967Z,1.13
2023-02-11T15:28:29.055Z,1.35
2023-02-11T15:31:04.892Z,1.88
2023-02-11T15:33:32.857Z,1.05
2023-02-11T15:36:02.085Z,2.00
2023-02-11T15:38:32.517Z,2.40
2023-02-11T15:41:02.264Z,2.67
2023-02-11T15:43:45.961Z,4.38
2023-02-11T15:46:17.136Z,1.92
2023-02-11T15:48:45.183Z,1.80
2023-02-11T15:51:22.015Z,2.30
2023-02-11T15:54:00.744Z,2.60
2023-02-11T15:56:44.366Z,1.40
2023-02-11T15:59:26.039Z,2.03
2023-02-11T16:01:55.216Z,1.45
2023-02-11T16:04:25.690Z,1.83
2023-02-11T16:06:54.705Z,4.68
2023-02-11T16:09:33.838Z,1.75
2023-02-11T16:12:21.252Z,1.90
2023-02-11T16:14:48.151Z,3.10
2023-02-11T16:17:27.890Z,2.08
2023-02-11T16:19:55.235Z,1.70
2023-02-11T16:22:28.928Z,2.75
2023-02-11T16:24:58.680Z,2.00
2023-02-11T16:27:41.167Z,1.60
2023-02-11T16:30:27.636Z,2.08
2023-02-11T16:32:54.651Z,2.97
2023-02-11T16:35:21.741Z,1.30
2023-02-11T16:37:48.514Z,3.17
2023-02-11T16:40:15.698Z,3.30
2023-02-11T16:42:42.816Z,3.67
2023-02-11T16:45:09.971Z,4.72
2023-02-11T16:47:41.010Z,4.43
2023-02-11T16:50:19.378Z,5.00
2023-02-11T16:52:47.282Z,4.32
2023-02-11T16:55:15.266Z,3.33
2023-02-11T16:57:42.186Z,8.50
2023-02-11T17:00:09.553Z,2.60
2023-02-11T17:02:38.254Z,3.13
2023-02-11T17:05:07.476Z,3.28
2023-02-11T17:07:34.411Z,2.08
2023-02-11T17:10:01.272Z,2.33
2023-02-11T17:12:28.024Z,6.75
2023-02-11T17:14:54.912Z,6.05
2023-02-11T17:17:23.862Z,3.95
2023-02-11T17:19:51.440Z,4.85
2023-02-11T17:22:18.834Z,4.43
2023-02-11T17:24:45.712Z,3.42
2023-02-11T17:27:12.807Z,6.57
2023-02-11T17:29:39.630Z,5.35
2023-02-11T17:32:06.572Z,5.30
2023-02-11T17:34:33.472Z,4.95
2023-02-11T17:37:00.376Z,5.72
2023-02-11T17:39:27.684Z,5.90
2023-02-11T17:41:54.400Z,4.55
2023-02-11T17:44:21.085Z,12.40
2023-02-11T17:46:47.843Z,20.70
2023-02-11T17:49:14.653Z,14.88
2023-02-11T17:51:41.503Z,13.32
2023-02-11T17:54:15.134Z,15.10
2023-02-11T17:56:42.484Z,14.27
2023-02-11T17:59:11.551Z,14.30
2023-02-11T18:01:39.458Z,15.35
2023-02-11T18:04:07.446Z,13.57
2023-02-11T18:06:34.306Z,15.05
2023-02-11T18:09:04.238Z,14.38
2023-02-11T18:11:33.740Z,11.85
2023-02-11T18:14:02.119Z,9.85
2023-02-11T18:16:30.613Z,9.77
2023-02-11T18:19:00.046Z,8.50
2023-02-11T18:21:27.154Z,7.43
2023-02-11T18:23:53.975Z,6.78
2023-02-11T18:26:21.773Z,9.40
2023-02-11T18:28:48.521Z,9.35
2023-02-11T18:31:16.099Z,8.43
2023-02-11T18:33:43.576Z,7.00
2023-02-11T18:36:15.204Z,6.72
2023-02-11T18:38:44.495Z,7.72
2023-02-11T18:41:12.460Z,9.73
2023-02-11T18:43:40.220Z,6.95
2023-02-11T18:46:12.434Z,6.28
2023-02-11T18:48:39.744Z,15.83
2023-02-11T18:51:15.278Z,8.65
2023-02-11T18:53:43.440Z,7.35
2023-02-11T18:56:21.911Z,7.75
2023-02-11T18:58:49.644Z,8.38
2023-02-11T19:01:21.052Z,6.25
2023-02-11T19:03:48.463Z,6.88
2023-02-11T19:06:21.540Z,5.93
2023-02-11T19:08:48.479Z,5.65
2023-02-11T19:11:18.011Z,7.68
2023-02-11T19:13:45.479Z,6.05
2023-02-11T19:16:14.055Z,6.18
2023-02-11T19:18:40.855Z,9.75
2023-02-11T19:21:09.667Z,7.57
2023-02-11T19:23:36.450Z,7.15
2023-02-11T19:26:04.683Z,8.57
2023-02-11T19:28:32.374Z,6.75
2023-02-11T19:31:05.849Z,5.57
2023-02-11T19:33:32.806Z,5.82
2023-02-11T19:36:05.862Z,5.80
2023-02-11T19:38:32.733Z,6.65
2023-02-11T19:40:59.511Z,5.68
2023-02-11T19:43:26.220Z,6.63
2023-02-11T19:45:57.434Z,7.50
2023-02-11T19:48:25.405Z,5.60
2023-02-11T19:50:52.317Z,13.13
2023-02-11T19:53:19.161Z,9.38
2023-02-11T19:55:45.968Z,6.10
2023-02-11T19:58:12.841Z,6.25
2023-02-11T20:00:39.926Z,5.70
2023-02-11T20:03:07.174Z,5.97
2023-02-11T20:05:34.384Z,5.65
2023-02-11T20:08:01.479Z,5.68
2023-02-11T20:10:28.218Z,5.22
2023-02-11T20:12:54.963Z,8.48
2023-02-11T20:15:21.757Z,7.28
2023-02-11T20:17:48.509Z,5.10
2023-02-11T20:20:15.331Z,7.38
2023-02-11T20:22:42.019Z,5.50
2023-02-11T20:25:10.948Z,5.22
2023-02-11T20:27:37.957Z,7.15
2023-02-11T20:30:05.668Z,6.10
2023-02-11T20:32:37.930Z,8.02
2023-02-11T20:35:07.365Z,5.82
2023-02-11T20:37:34.122Z,5.82
2023-02-11T20:40:00.834Z,8.68
2023-02-11T20:42:27.598Z,8.70
2023-02-11T20:44:54.285Z,7.90
2023-02-11T20:47:20.986Z,9.07
2023-02-11T20:49:47.695Z,8.85
2023-02-11T20:52:14.437Z,9.30
2023-02-11T20:54:41.371Z,7.90
2023-02-11T20:57:08.259Z,12.55
2023-02-11T20:59:34.961Z,8.52
2023-02-11T21:02:01.810Z,8.52
2023-02-11T21:04:30.641Z,9.68
2023-02-11T21:07:00.237Z,10.27
2023-02-11T21:09:30.736Z,9.45
2023-02-11T21:11:57.592Z,9.82
2023-02-11T21:14:26.106Z,8.02
2023-02-11T21:16:52.860Z,8.43
2023-02-11T21:19:20.401Z,8.02
2023-02-11T21:21:47.436Z,6.38
2023-02-11T21:24:17.035Z,5.97
2023-02-11T21:26:43.841Z,5.47
2023-02-11T21:29:11.917Z,8.15
2023-02-11T21:31:38.904Z,9.85
2023-02-11T21:34:06.841Z,10.13
2023-02-11T21:36:34.203Z,8.02
2023-02-11T21:39:01.945Z,8.30
2023-02-11T21:41:28.868Z,7.75
2023-02-11T21:43:55.676Z,8.18
2023-02-11T21:46:23.534Z,7.72
2023-02-11T21:48:50.459Z,8.02
2023-02-11T21:51:20.257Z,5.60
2023-02-11T21:53:47.817Z,7.75
2023-02-11T21:56:20.130Z,8.50
2023-02-11T21:58:47.631Z,6.13
2023-02-11T22:01:19.738Z,9.35
2023-02-11T22:03:47.449Z,7.20
2023-02-11T22:06:21.418Z,6.35
2023-02-11T22:08:49.395Z,6.72
2023-02-11T22:11:16.471Z,11.15
2023-02-11T22:13:43.304Z,10.25
2023-02-11T22:16:16.088Z,7.65
2023-02-11T22:18:46.515Z,11.10
2023-02-11T22:21:18.370Z,11.55
2023-02-11T22:23:45.358Z,8.93
2023-02-11T22:26:15.742Z,8.77
2023-02-11T22:28:43.024Z,8.23
2023-02-11T22:31:21.718Z,5.82
2023-02-11T22:33:48.999Z,5.47
2023-02-11T22:36:19.150Z,8.40
2023-02-11T22:38:46.227Z,5.95
2023-02-11T22:41:13.443Z,7.65
2023-02-11T22:43:41.969Z,7.95
2023-02-11T22:46:10.997Z,8.07
2023-02-11T22:48:37.693Z,6.45
2023-02-11T22:51:10.256Z,8.77
2023-02-11T22:53:36.994Z,7.40
2023-02-11T22:56:15.145Z,8.30
2023-02-11T22:58:42.762Z,8.35
2023-02-11T23:01:09.586Z,5.28
2023-02-11T23:03:36.549Z,8.77
2023-02-11T23:06:03.546Z,3.40
2023-02-11T23:08:31.265Z,3.25
2023-02-11T23:11:08.040Z,4.88
2023-02-11T23:13:36.937Z,4.70
2023-02-11T23:16:09.460Z,4.60
2023-02-11T23:18:37.601Z,4.30
2023-02-11T23:21:15.982Z,7.53
2023-02-11T23:23:43.155Z,5.65
2023-02-11T23:26:16.025Z,8.25
2023-02-11T23:28:46.122Z,6.65
2023-02-11T23:31:15.036Z,7.65
2023-02-11T23:33:42.037Z,6.25
2023-02-11T23:36:09.120Z,5.55
2023-02-11T23:38:36.122Z,8.40
2023-02-11T23:41:03.058Z,7.80
2023-02-11T23:43:29.981Z,6.82
2023-02-11T23:45:57.095Z,8.63
2023-02-11T23:48:24.001Z,7.35
2023-02-11T23:50:51.122Z,5.95
2023-02-11T23:53:17.913Z,7.07
2023-02-11T23:55:46.313Z,4.95
2023-02-11T23:58:14.635Z,5.68
